Time;durP1;ratioP1;P1;durP2;ratioP2;P2;SDS_P1;SDS_P2;PMS_P1;PMS_P2;Temp;Humidity;BMP_temperature;BMP_pressure;BME280_temperature;BME280_humidity;BME280_pressure;Samples;Min_cycle;Max_cycle;Signal;HPM_P1;HPM_P2
2023/03/28 00:01:52;;;;;;;14.30;6.50;;;;;;;9.59;47.05;98795.85;268681;1274;26540;-81
2023/03/28 00:07:57;;;;;;;14.70;6.60;;;;;;;11.00;44.32;98790.09;268898;1274;22626;-81
2023/03/28 00:14:07;;;;;;;14.30;5.90;;;;;;;8.99;47.13;98794.24;269250;1274;23057;-83
2023/03/28 00:20:18;;;;;;;18.50;7.70;;;;;;;7.88;49.60;98789.43;268388;1274;24218;-83
2023/03/28 00:26:28;;;;;;;13.60;6.70;;;;;;;8.29;48.40;98782.96;268511;1274;23344;-84
2023/03/28 00:32:30;;;;;;;16.30;7.00;;;;;;;8.84;48.44;98787.63;268176;1274;22576;-83
2023/03/28 00:38:37;;;;;;;11.80;5.80;;;;;;;8.30;48.32;98793.07;268442;1273;24246;-83
2023/03/28 00:44:54;;;;;;;12.90;5.90;;;;;;;7.83;49.11;98800.14;268473;1272;26272;-81
2023/03/28 00:51:02;;;;;;;17.70;7.50;;;;;;;7.86;48.50;98805.40;268276;1273;24247;-81
2023/03/28 00:57:15;;;;;;;14.20;7.30;;;;;;;10.80;45.08;98803.13;268171;1257;24269;-80
2023/03/28 01:03:26;;;;;;;19.20;8.70;;;;;;;9.39;44.94;98806.10;268178;1262;22534;-76
2023/03/28 01:09:29;;;;;;;18.20;8.60;;;;;;;7.68;47.57;98806.02;267412;1255;22530;-76
2023/03/28 01:15:31;;;;;;;23.50;9.80;;;;;;;8.55;47.40;98805.20;267673;1267;23808;-75
2023/03/28 01:21:35;;;;;;;21.50;9.30;;;;;;;9.02;45.67;98801.71;267615;1274;22652;-76
2023/03/28 01:36:20;;;;;;;22.70;9.40;;;;;;;10.06;45.28;98796.23;267851;1277;22567;-76
2023/03/28 01:43:02;;;;;;;19.90;9.10;;;;;;;8.35;47.22;98796.29;266678;1273;24725;-77
2023/03/28 01:49:08;;;;;;;20.00;9.10;;;;;;;9.39;45.56;98791.31;266061;1265;22810;-77
2023/03/28 01:55:13;;;;;;;;;;;;;;;7.64;47.25;98805.40;266541;1277;24455;-77
2023/03/28 02:01:26;;;;;;;20.20;9.40;;;;;;;6.90;48.47;98815.70;266760;1274;22772;-78
2023/03/28 02:07:32;;;;;;;21.40;9.80;;;;;;;7.25;48.57;98809.42;267788;1264;22574;-76
2023/03/28 02:14:06;;;;;;;21.60;8.70;;;;;;;6.78;48.99;98807.08;267130;1259;22526;-76
2023/03/28 02:20:32;;;;;;;17.30;8.50;;;;;;;6.80;49.30;98807.61;267014;1270;24606;-76
2023/03/28 02:26:45;;;;;;;18.10;8.50;;;;;;;6.91;49.49;98807.84;267330;1266;23327;-75
2023/03/28 02:33:07;;;;;;;19.80;8.80;;;;;;;6.90;49.57;98808.02;267559;1260;22529;-81
2023/03/28 02:39:29;;;;;;;19.00;8.90;;;;;;;7.41;48.96;98796.36;268618;1269;22538;-83
2023/03/28 02:46:03;;;;;;;18.00;8.80;;;;;;;7.18;49.19;98794.76;268408;1274;25713;-80
2023/03/28 02:52:22;;;;;;;18.00;8.50;;;;;;;6.53;50.43;98792.91;268443;1269;22549;-76
2023/03/28 02:58:39;;;;;;;21.60;9.20;;;;;;;6.51;50.67;98795.16;267139;1268;22657;-77
2023/03/28 03:04:41;;;;;;;21.90;9.70;;;;;;;6.24;51.42;98798.45;268626;1271;23174;-77
2023/03/28 03:10:42;;;;;;;21.90;9.60;;;;;;;6.15;51.70;98800.50;268565;1266;22537;-77
2023/03/28 03:16:47;;;;;;;20.80;9.50;;;;;;;6.88;50.70;98799.23;268077;1269;22547;-76
2023/03/28 03:22:59;;;;;;;25.40;10.40;;;;;;;6.92;50.75;98795.80;267085;1270;22520;-77
2023/03/28 03:29:05;;;;;;;19.90;9.30;;;;;;;6.70;51.30;98799.88;267641;1267;22650;-76
2023/03/28 03:35:07;;;;;;;21.40;11.00;;;;;;;6.89;51.64;98794.39;267797;1267;25392;-74
2023/03/28 03:41:08;;;;;;;22.60;10.90;;;;;;;7.57;50.86;98785.05;267597;1267;24270;-75
2023/03/28 03:47:10;;;;;;;18.40;10.20;;;;;;;7.08;51.87;98784.15;267267;1268;25513;-74
2023/03/28 03:53:12;;;;;;;21.00;10.70;;;;;;;7.57;51.81;98782.05;267459;1256;22590;-75
2023/03/28 03:59:28;;;;;;;21.30;10.30;;;;;;;8.52;50.31;98774.56;267926;1268;22541;-78
2023/03/28 04:05:30;;;;;;;26.50;11.80;;;;;;;8.25;50.71;98779.14;268592;1269;22544;-79
2023/03/28 04:11:44;;;;;;;23.30;11.40;;;;;;;8.54;50.53;98786.11;267621;1267;26620;-75
2023/03/28 04:17:48;;;;;;;25.70;11.60;;;;;;;8.22;51.44;98787.16;267561;1265;22527;-74
2023/03/28 04:23:53;;;;;;;25.00;11.70;;;;;;;9.46;50.36;98784.20;267524;1266;22636;-74
2023/03/28 04:30:06;;;;;;;18.90;9.90;;;;;;;8.90;50.16;98790.00;267540;1269;24264;-74
2023/03/28 04:36:28;;;;;;;17.50;9.00;;;;;;;8.44;51.65;98793.63;266987;1270;22647;-75
2023/03/28 04:42:36;;;;;;;15.50;8.30;;;;;;;9.94;49.52;98780.00;267868;1270;22547;-73
2023/03/28 04:48:49;;;;;;;16.90;8.60;;;;;;;9.20;50.07;98780.55;267469;1259;22566;-73
2023/03/28 04:55:00;;;;;;;17.50;8.90;;;;;;;9.04;51.40;98783.09;267606;1268;25439;-74
2023/03/28 05:01:02;;;;;;;16.30;8.30;;;;;;;8.90;51.83;98783.09;267209;1267;22581;-74
2023/03/28 05:07:25;;;;;;;18.20;8.80;;;;;;;8.82;52.47;98785.27;267168;1259;25295;-74
2023/03/28 05:13:27;;;;;;;13.40;7.90;;;;;;;9.12;52.89;98783.35;267558;1262;22565;-76
2023/03/28 05:19:38;;;;;;;13.80;7.10;;;;;;;9.38;52.93;98788.61;267227;1266;22593;-75
2023/03/28 05:25:51;;;;;;;13.10;7.00;;;;;;;9.11;53.01;98787.47;268581;1266;26823;-74
2023/03/28 05:31:53;;;;;;;16.50;6.90;;;;;;;9.09;53.14;98779.69;268077;1257;25433;-75
2023/03/28 05:38:05;;;;;;;16.70;7.20;;;;;;;9.62;52.20;98776.39;267470;1270;24185;-74
2023/03/28 05:44:07;;;;;;;12.40;6.50;;;;;;;9.73;52.28;98777.23;267811;1267;24239;-74
2023/03/28 05:50:30;;;;;;;12.00;6.90;;;;;;;9.91;52.55;98779.00;267576;1268;24213;-74
2023/03/28 05:56:36;;;;;;;12.80;7.20;;;;;;;10.92;53.87;98785.78;271019;1270;22681;-73
2023/03/28 06:02:39;;;;;;;14.20;7.40;;;;;;;8.67;59.29;98797.98;268025;1262;22624;-75
2023/03/28 06:08:40;;;;;;;11.60;6.50;;;;;;;7.67;72.09;98807.04;269640;1265;22544;-72
2023/03/28 06:14:43;;;;;;;13.10;7.20;;;;;;;7.57;80.01;98810.10;268701;1259;25690;-73
2023/03/28 06:20:54;;;;;;;13.00;6.60;;;;;;;7.78;95.84;98815.20;267623;1259;25342;-73
2023/03/28 06:26:57;;;;;;;13.70;7.00;;;;;;;7.87;89.61;98824.55;267727;1267;22530;-73
2023/03/28 06:32:59;;;;;;;12.70;7.30;;;;;;;8.94;78.11;98824.83;267403;1269;24280;-74
2023/03/28 06:39:01;;;;;;;19.40;9.10;;;;;;;10.54;68.90;98825.77;267289;1270;23369;-74
2023/03/28 06:45:04;;;;;;;15.70;9.50;;;;;;;9.39;70.70;98833.05;267018;1268;22547;-74
2023/03/28 06:51:40;;;;;;;14.70;9.30;;;;;;;9.26;71.07;98840.33;267165;1269;22547;-74
2023/03/28 06:57:42;;;;;;;17.40;9.10;;;;;;;9.87;69.11;98841.31;267397;1267;24369;-74
2023/03/28 07:04:00;;;;;;;17.80;10.40;;;;;;;10.61;66.51;98844.36;267269;1256;24263;-74
2023/03/28 07:10:03;;;;;;;17.90;9.70;;;;;;;10.85;65.26;98847.77;267672;1270;23190;-75
2023/03/28 07:16:15;;;;;;;15.30;8.90;;;;;;;11.08;63.75;98854.31;267460;1269;22523;-75
2023/03/28 07:22:17;;;;;;;13.90;8.30;;;;;;;11.36;62.31;98852.84;267089;1265;22560;-74
2023/03/28 07:28:19;;;;;;;13.70;7.70;;;;;;;13.74;57.53;98842.59;267448;1257;22130;-74
2023/03/28 07:34:21;;;;;;;10.10;6.90;;;;;;;11.82;57.36;98844.95;267477;1256;24224;-73
2023/03/28 07:40:23;;;;;;;10.70;6.70;;;;;;;11.23;59.41;98850.96;267229;1262;22542;-73
2023/03/28 07:46:25;;;;;;;10.50;6.90;;;;;;;11.99;57.24;98848.41;267217;1270;26280;-74
2023/03/28 07:52:27;;;;;;;9.60;6.00;;;;;;;10.56;60.23;98869.49;267326;1268;120592;-72
2023/03/28 07:58:29;;;;;;;7.60;5.10;;;;;;;9.41;66.89;98886.23;267174;1265;22587;-73
2023/03/28 08:04:33;;;;;;;7.10;4.70;;;;;;;8.53;80.39;98904.94;267334;1255;22598;-73
2023/03/28 08:10:39;;;;;;;;;;;;;;;8.76;79.20;98916.45;266743;1253;22529;-74
2023/03/28 08:16:43;;;;;;;7.70;5.30;;;;;;;9.43;72.67;98921.14;267179;1262;22622;-74
2023/03/28 08:22:45;;;;;;;9.30;6.00;;;;;;;9.90;68.06;98923.46;267122;1271;22539;-74
2023/03/28 08:29:10;;;;;;;7.90;5.00;;;;;;;10.53;63.99;98919.95;267334;1259;22554;-75
2023/03/28 08:35:12;;;;;;;5.90;3.90;;;;;;;10.25;61.95;98922.88;267510;1256;22575;-74
2023/03/28 08:41:31;;;;;;;4.10;1.80;;;;;;;9.75;60.00;98937.56;267221;1270;22628;-74
2023/03/28 08:47:42;;;;;;;2.10;1.10;;;;;;;9.08;57.20;98950.96;267102;1257;22569;-73
2023/03/28 08:53:50;;;;;;;1.10;0.80;;;;;;;9.19;55.93;98966.03;267111;1269;23318;-73
2023/03/28 09:00:09;;;;;;;1.90;1.00;;;;;;;8.20;55.19;98982.15;267506;1257;22536;-74
2023/03/28 09:06:27;;;;;;;1.50;1.00;;;;;;;9.26;51.96;98991.05;267213;1269;22541;-74
2023/03/28 09:12:50;;;;;;;1.40;0.80;;;;;;;9.58;50.99;98995.72;267299;1259;25348;-74
2023/03/28 09:19:14;;;;;;;0.80;0.40;;;;;;;9.56;48.76;99018.44;267460;1268;22623;-75
2023/03/28 09:25:20;;;;;;;1.40;0.40;;;;;;;9.61;48.40;99028.14;267203;1259;22569;-74
2023/03/28 09:31:26;;;;;;;1.20;0.60;;;;;;;8.56;48.65;99050.56;267124;1267;25291;-74
2023/03/28 09:37:40;;;;;;;1.20;0.70;;;;;;;9.65;48.25;99051.73;267379;1270;22781;-72
2023/03/28 09:43:55;;;;;;;2.20;0.90;;;;;;;8.33;48.35;99072.77;267832;1271;24257;-74
2023/03/28 09:50:15;;;;;;;3.00;0.80;;;;;;;9.07;47.30;99060.05;267231;1266;23387;-74
2023/03/28 09:56:38;;;;;;;1.90;1.00;;;;;;;8.89;47.66;99066.45;267329;1266;24055;-74
2023/03/28 10:02:51;;;;;;;1.90;1.20;;;;;;;9.41;47.90;99067.79;267328;1270;22756;-74
2023/03/28 10:09:18;;;;;;;1.90;0.90;;;;;;;9.21;46.09;99083.87;267502;1266;25413;-73
2023/03/28 10:15:38;;;;;;;1.60;1.00;;;;;;;9.84;43.73;99083.77;267294;1268;23452;-74
2023/03/28 10:22:02;;;;;;;1.30;0.80;;;;;;;10.31;43.28;99070.41;267094;1256;25371;-75
2023/03/28 10:28:13;;;;;;;2.10;1.20;;;;;;;9.77;43.97;99087.31;267075;1267;22571;-74
2023/03/28 10:34:27;;;;;;;2.60;1.10;;;;;;;10.30;44.17;99086.65;267178;1268;23788;-74
2023/03/28 10:40:36;;;;;;;1.60;0.90;;;;;;;10.46;44.19;99096.98;267396;1265;22855;-75
2023/03/28 10:46:44;;;;;;;1.70;0.90;;;;;;;11.77;42.39;99087.66;267597;1269;22604;-75
2023/03/28 10:52:58;;;;;;;2.70;1.30;;;;;;;11.20;41.52;99095.12;267128;1257;25344;-75
2023/03/28 10:59:19;;;;;;;1.90;0.80;;;;;;;10.17;42.06;99111.85;267171;1267;24385;-74
2023/03/28 11:05:36;;;;;;;1.60;0.90;;;;;;;9.50;41.63;99123.72;267516;1270;23291;-74
2023/03/28 11:12:23;;;;;;;1.90;0.80;;;;;;;10.04;41.71;99119.41;266985;1271;23293;-75
2023/03/28 11:18:47;;;;;;;1.70;0.90;;;;;;;10.44;40.92;99122.86;267269;1272;26503;-74
2023/03/28 11:25:22;;;;;;;2.70;1.20;;;;;;;11.09;41.90;99121.21;267363;1268;22554;-74
2023/03/28 11:32:29;;;;;;;3.60;1.30;;;;;;;11.19;40.71;99122.36;267532;1257;22544;-74
2023/03/28 11:38:41;;;;;;;2.60;0.90;;;;;;;11.79;40.03;99109.40;266898;1260;22591;-74
2023/03/28 11:44:53;;;;;;;2.10;0.80;;;;;;;10.78;40.24;99124.09;267133;1263;25444;-74
2023/03/28 11:51:05;;;;;;;1.90;1.10;;;;;;;10.18;39.33;99136.76;267604;1269;22536;-73
2023/03/28 11:57:23;;;;;;;1.30;0.90;;;;;;;10.02;39.47;99145.66;267314;1269;22579;-75
2023/03/28 12:03:57;;;;;;;2.00;0.90;;;;;;;10.44;39.41;99143.05;267271;1271;22527;-74
2023/03/28 12:10:05;;;;;;;1.10;0.90;;;;;;;9.75;38.52;99146.51;267527;1267;22540;-74
2023/03/28 12:16:15;;;;;;;2.80;1.10;;;;;;;11.25;38.45;99142.18;267356;1266;25544;-74
2023/03/28 12:22:31;;;;;;;1.60;0.90;;;;;;;10.58;39.03;99139.33;267306;1269;23444;-74
2023/03/28 12:28:42;;;;;;;1.70;0.80;;;;;;;11.41;38.95;99123.84;267686;1269;25331;-73
2023/03/28 12:34:52;;;;;;;1.70;0.90;;;;;;;12.91;35.93;99125.73;266963;1261;24281;-74
2023/03/28 12:41:05;;;;;;;1.90;1.00;;;;;;;12.69;36.20;99142.70;267209;1271;25240;-74
2023/03/28 12:47:23;;;;;;;1.80;0.90;;;;;;;10.88;38.87;99148.26;267483;1255;22534;-74
2023/03/28 12:53:30;;;;;;;2.30;0.80;;;;;;;9.75;40.91;99165.64;267031;1274;22160;-74
2023/03/28 12:59:43;;;;;;;1.70;0.90;;;;;;;10.18;40.00;99164.25;267560;1270;24267;-73
2023/03/28 13:06:01;;;;;;;1.80;1.00;;;;;;;10.80;39.25;99163.40;266998;1271;22525;-73
2023/03/28 13:12:23;;;;;;;3.20;1.70;;;;;;;10.59;42.64;99185.69;267321;1266;25306;-73
2023/03/28 13:18:28;;;;;;;2.30;1.30;;;;;;;8.97;52.10;99232.55;267261;1252;22547;-73
2023/03/28 13:24:32;;;;;;;2.10;1.30;;;;;;;8.59;59.19;99220.50;267396;1255;24237;-74
2023/03/28 13:30:33;;;;;;;4.10;1.70;;;;;;;8.47;56.53;99221.73;267375;1266;22643;-75
2023/03/28 13:36:35;;;;;;;2.60;1.50;;;;;;;9.65;53.11;99195.70;267498;1256;22666;-74
2023/03/28 13:42:36;;;;;;;4.60;2.30;;;;;;;11.03;50.65;99190.57;267286;1265;22553;-74
2023/03/28 13:49:17;;;;;;;3.50;2.20;;;;;;;11.19;50.07;99194.55;267244;1266;23936;-74
2023/03/28 13:55:23;;;;;;;4.10;2.20;;;;;;;11.06;49.63;99210.36;267110;1271;24375;-75
2023/03/28 14:01:33;;;;;;;3.10;1.90;;;;;;;10.03;51.68;99250.00;267778;1253;22746;-73
2023/03/28 14:07:35;;;;;;;2.70;1.00;;;;;;;-71.97;39.40;39716.69;264954;1272;1002486;-73
2023/03/28 14:13:36;;;;;;;1.70;1.30;;;;;;;-128.00;-1.00;-1.00;263451;1271;1002913;-75
2023/03/28 14:19:58;;;;;;;2.30;1.40;;;;;;;-128.00;-1.00;-1.00;263787;1267;1002760;-74
2023/03/28 14:26:02;;;;;;;1.60;1.10;;;;;;;-128.00;-1.00;-1.00;263677;1269;1002957;-74
2023/03/28 14:32:39;;;;;;;3.00;1.10;;;;;;;-128.00;-1.00;-1.00;263305;1270;1002752;-74
2023/03/28 14:39:09;;;;;;;2.00;1.10;;;;;;;-128.00;-1.00;-1.00;263546;1274;1002495;-74
2023/03/28 14:45:16;;;;;;;3.20;1.50;;;;;;;-128.00;-1.00;-1.00;263739;1266;1002513;-75
2023/03/28 14:51:21;;;;;;;3.30;1.50;;;;;;;-128.00;-1.00;-1.00;263795;1267;1002366;-74
2023/03/28 14:57:23;;;;;;;3.90;1.60;;;;;;;-128.00;-1.00;-1.00;264038;1256;1002881;-75
2023/03/28 15:03:32;;;;;;;2.70;1.50;;;;;;;-128.00;-1.00;-1.00;264179;1266;1004028;-75
2023/03/28 15:09:34;;;;;;;2.40;1.20;;;;;;;-128.00;-1.00;-1.00;264256;1256;1002517;-74
2023/03/28 15:15:44;;;;;;;2.60;1.50;;;;;;;-128.00;-1.00;-1.00;264646;1266;1002452;-74
2023/03/28 15:21:57;;;;;;;2.90;1.50;;;;;;;-128.00;-1.00;-1.00;263659;1259;1002557;-74
2023/03/28 15:28:02;;;;;;;2.50;1.60;;;;;;;-128.00;-1.00;-1.00;263433;1267;1004586;-74
2023/03/28 15:34:09;;;;;;;2.40;1.60;;;;;;;-128.00;-1.00;-1.00;263792;1263;1003702;-73
2023/03/28 15:40:17;;;;;;;2.20;1.30;;;;;;;-128.00;-1.00;-1.00;263590;1271;1004392;-74
2023/03/28 15:46:28;;;;;;;3.30;1.50;;;;;;;-128.00;-1.00;-1.00;263915;1266;1003640;-74
2023/03/28 15:52:30;;;;;;;3.60;1.60;;;;;;;-128.00;-1.00;-1.00;263880;1266;1002766;-74
2023/03/28 15:58:33;;;;;;;4.50;2.30;;;;;;;-128.00;-1.00;-1.00;263506;1262;1003315;-73
2023/03/28 16:04:35;;;;;;;2.50;1.70;;;;;;;-128.00;-1.00;-1.00;263843;1269;1002438;-73
2023/03/28 16:10:36;;;;;;;3.80;1.80;;;;;;;-128.00;-1.00;-1.00;263723;1271;1003210;-74
2023/03/28 16:16:57;;;;;;;4.00;2.20;;;;;;;-128.00;-1.00;-1.00;263891;1260;1002490;-74
2023/03/28 16:23:12;;;;;;;4.00;2.30;;;;;;;-128.00;-1.00;-1.00;264298;1267;1002635;-74
2023/03/28 16:29:13;;;;;;;6.00;3.10;;;;;;;-128.00;-1.00;-1.00;265248;1262;1004343;-74
2023/03/28 16:35:15;;;;;;;5.70;3.50;;;;;;;-128.00;-1.00;-1.00;265123;1271;1002747;-74
2023/03/28 16:41:17;;;;;;;6.70;3.90;;;;;;;-128.00;-1.00;-1.00;263706;1272;1003123;-74
2023/03/28 16:47:18;;;;;;;6.60;4.10;;;;;;;-128.00;-1.00;-1.00;264763;1271;1002160;-73
2023/03/28 16:53:22;;;;;;;5.80;3.80;;;;;;;-128.00;-1.00;-1.00;264753;1266;1002585;-73
2023/03/28 16:59:24;;;;;;;6.00;3.50;;;;;;;-128.00;-1.00;-1.00;264804;1271;1002851;-74
2023/03/28 17:05:29;;;;;;;7.60;3.20;;;;;;;-128.00;-1.00;-1.00;263554;1251;1004165;-74
2023/03/28 17:11:31;;;;;;;5.90;3.30;;;;;;;-128.00;-1.00;-1.00;263961;1272;1002738;-74
2023/03/28 17:17:36;;;;;;;8.10;3.30;;;;;;;-128.00;-1.00;-1.00;263580;1256;1002579;-82
2023/03/28 17:23:40;;;;;;;7.70;3.80;;;;;;;-128.00;-1.00;-1.00;263514;1274;1002869;-74
2023/03/28 17:29:42;;;;;;;4.70;2.50;;;;;;;-128.00;-1.00;-1.00;263818;1267;1003240;-75
2023/03/28 17:35:44;;;;;;;4.50;2.00;;;;;;;-128.00;-1.00;-1.00;263831;1257;1002609;-75
2023/03/28 17:41:46;;;;;;;4.50;1.70;;;;;;;-128.00;-1.00;-1.00;263662;1273;1002510;-75
2023/03/28 17:47:52;;;;;;;2.60;1.50;;;;;;;-128.00;-1.00;-1.00;264635;1270;1002538;-75
2023/03/28 17:53:54;;;;;;;3.70;1.40;;;;;;;-128.00;-1.00;-1.00;265030;1265;1004337;-74
2023/03/28 17:59:56;;;;;;;3.00;1.40;;;;;;;-128.00;-1.00;-1.00;263946;1258;1002440;-74
2023/03/28 18:06:01;;;;;;;4.20;2.20;;;;;;;-128.00;-1.00;-1.00;264734;1267;1002379;-75
2023/03/28 18:12:03;;;;;;;4.50;2.10;;;;;;;-128.00;-1.00;-1.00;263815;1263;1002603;-74
2023/03/28 18:18:04;;;;;;;4.30;2.20;;;;;;;-128.00;-1.00;-1.00;263823;1267;1002885;-74
2023/03/28 18:24:06;;;;;;;6.60;3.00;;;;;;;-128.00;-1.00;-1.00;264180;1269;1002516;-73
2023/03/28 18:30:09;;;;;;;4.70;2.50;;;;;;;-128.00;-1.00;-1.00;263772;1267;1002551;-74
2023/03/28 18:36:12;;;;;;;6.00;3.00;;;;;;;-128.00;-1.00;-1.00;264394;1267;1002255;-74
2023/03/28 18:42:14;;;;;;;6.40;2.90;;;;;;;-128.00;-1.00;-1.00;264208;1272;1003872;-74
2023/03/28 18:48:17;;;;;;;4.20;2.40;;;;;;;-128.00;-1.00;-1.00;263923;1264;1002691;-74
2023/03/28 18:54:20;;;;;;;6.40;3.10;;;;;;;-128.00;-1.00;-1.00;264065;1268;1002701;-75
2023/03/28 19:00:22;;;;;;;5.00;2.50;;;;;;;-128.00;-1.00;-1.00;264075;1257;1002507;-75
2023/03/28 19:06:24;;;;;;;7.20;2.90;;;;;;;-128.00;-1.00;-1.00;266836;1267;1003816;-74
2023/03/28 19:12:26;;;;;;;6.30;2.70;;;;;;;-128.00;-1.00;-1.00;263525;1270;1003215;-77
2023/03/28 19:18:32;;;;;;;6.40;2.90;;;;;;;-128.00;-1.00;-1.00;263904;1274;1002942;-77
2023/03/28 19:24:37;;;;;;;4.60;2.60;;;;;;;-128.00;-1.00;-1.00;264170;1267;1002675;-78
2023/03/28 19:30:38;;;;;;;6.70;2.70;;;;;;;-128.00;-1.00;-1.00;264316;1270;1002635;-78
2023/03/28 19:36:44;;;;;;;4.20;2.20;;;;;;;-128.00;-1.00;-1.00;263995;1267;1003557;-79
2023/03/28 19:42:57;;;;;;;5.20;2.60;;;;;;;-128.00;-1.00;-1.00;263482;1270;1002356;-78
2023/03/28 19:49:00;;;;;;;9.30;2.50;;;;;;;-128.00;-1.00;-1.00;264549;1270;1002644;-72
2023/03/28 19:55:03;;;;;;;5.30;2.30;;;;;;;-128.00;-1.00;-1.00;263611;1270;1002542;-72
2023/03/28 20:01:07;;;;;;;5.10;2.60;;;;;;;-128.00;-1.00;-1.00;263786;1267;1002493;-72
2023/03/28 20:07:08;;;;;;;6.60;3.50;;;;;;;-128.00;-1.00;-1.00;263484;1267;1002955;-74
2023/03/28 20:13:11;;;;;;;5.80;3.90;;;;;;;-128.00;-1.00;-1.00;263957;1263;1002582;-72
2023/03/28 20:19:16;;;;;;;12.00;5.20;;;;;;;-128.00;-1.00;-1.00;264316;1270;1002653;-76
2023/03/28 20:25:18;;;;;;;12.60;6.30;;;;;;;-17.50;36.74;79736.18;267238;1270;1002657;-77
2023/03/28 20:31:21;;;;;;;10.00;5.20;;;;;;;10.17;46.28;99667.64;267995;1267;22689;-74
2023/03/28 20:37:28;;;;;;;9.40;4.50;;;;;;;10.30;46.20;99671.86;267716;1267;23826;-81
2023/03/28 20:43:39;;;;;;;9.40;5.10;;;;;;;9.58;47.12;99673.11;267376;1273;25353;-84
2023/03/28 20:49:44;;;;;;;12.40;6.20;;;;;;;13.93;41.01;99665.73;267688;1270;22566;-81
2023/03/28 20:56:03;;;;;;;10.30;5.50;;;;;;;13.19;40.48;99670.08;268412;1274;22554;-79
2023/03/28 21:02:09;;;;;;;11.20;6.10;;;;;;;10.27;44.20;99687.69;268293;1266;22637;-77
2023/03/28 21:08:12;;;;;;;12.20;6.10;;;;;;;10.02;44.41;99684.42;267515;1269;22542;-74
2023/03/28 21:14:16;;;;;;;8.20;3.90;;;;;;;9.79;44.23;99685.95;268045;1257;22568;-78
2023/03/28 21:20:18;;;;;;;10.90;5.20;;;;;;;9.54;44.89;99688.05;268604;1267;25184;-77
2023/03/28 21:26:21;;;;;;;11.60;5.20;;;;;;;9.72;44.19;99690.79;268721;1267;24450;-76
2023/03/28 21:32:27;;;;;;;9.80;4.70;;;;;;;9.51;43.91;99700.02;268368;1266;23460;-76
2023/03/28 21:38:35;;;;;;;9.90;4.60;;;;;;;9.40;43.79;99707.30;269315;1269;24405;-77
2023/03/28 21:44:37;;;;;;;10.60;4.60;;;;;;;9.27;43.38;99708.20;269193;1257;22558;-78
2023/03/28 21:50:47;;;;;;;12.50;5.70;;;;;;;9.61;42.99;99706.04;268658;1258;25412;-77
2023/03/28 21:56:57;;;;;;;9.10;4.50;;;;;;;9.45;42.97;99708.48;268945;1259;24200;-77
2023/03/28 22:02:59;;;;;;;9.40;4.70;;;;;;;9.22;42.94;99710.05;267997;1267;22640;-76
2023/03/28 22:09:03;;;;;;;12.00;4.80;;;;;;;9.02;43.11;99709.83;267239;1267;25678;-76
2023/03/28 22:15:06;;;;;;;10.00;4.60;;;;;;;9.07;42.62;99712.27;267809;1267;22531;-76
2023/03/28 22:21:12;;;;;;;8.30;3.90;;;;;;;8.56;43.12;99722.91;268058;1266;22608;-76
2023/03/28 22:27:14;;;;;;;9.10;3.70;;;;;;;8.79;42.81;99725.44;267194;1270;24207;-77
2023/03/28 22:33:15;;;;;;;9.80;4.00;;;;;;;8.87;42.61;99725.52;268080;1262;22654;-76
2023/03/28 22:39:20;;;;;;;9.10;3.90;;;;;;;9.08;42.30;99722.93;267982;1260;22555;-77
2023/03/28 22:45:23;;;;;;;10.60;4.00;;;;;;;8.74;42.44;99725.41;268593;1270;25662;-73
2023/03/28 22:51:26;;;;;;;8.40;3.50;;;;;;;8.59;42.78;99729.13;267421;1267;24370;-74
2023/03/28 22:57:27;;;;;;;10.40;4.40;;;;;;;8.47;42.62;99728.69;267584;1268;24239;-72
2023/03/28 23:03:29;;;;;;;9.30;3.90;;;;;;;8.23;42.79;99736.24;269006;1267;26548;-72
2023/03/28 23:09:31;;;;;;;10.50;4.40;;;;;;;7.70;43.13;99742.59;267169;1266;23334;-72
2023/03/28 23:15:33;;;;;;;12.30;4.50;;;;;;;7.90;42.73;99745.02;267318;1267;23961;-71
2023/03/28 23:21:35;;;;;;;8.50;4.30;;;;;;;7.97;42.67;99743.83;267854;1267;22595;-73
2023/03/28 23:27:38;;;;;;;10.10;4.70;;;;;;;7.78;42.99;99741.01;267688;1266;25369;-73
2023/03/28 23:33:39;;;;;;;11.50;5.00;;;;;;;7.54;43.57;99749.89;267700;1267;22735;-73
2023/03/28 23:39:41;;;;;;;12.00;5.10;;;;;;;7.52;43.89;99752.83;267974;1271;22148;-73
2023/03/28 23:45:43;;;;;;;12.00;5.10;;;;;;;7.36;44.10;99760.14;268919;1260;22542;-73
2023/03/28 23:51:45;;;;;;;13.60;5.80;;;;;;;6.88;45.23;99761.36;267586;1267;22534;-73
2023/03/28 23:57:46;;;;;;;15.20;6.50;;;;;;;7.35;44.84;99763.84;267167;1269;25462;-74
